createdAt,value
2024-04-07T00:00:48.541Z,1004.67
2024-04-07T00:01:48.700Z,1004.67
2024-04-07T00:02:48.604Z,1004.70
2024-04-07T00:03:48.520Z,1004.67
2024-04-07T00:04:48.669Z,1004.67
2024-04-07T00:05:47.701Z,1004.67
2024-04-07T00:06:48.481Z,1004.67
2024-04-07T00:07:47.683Z,1004.64
2024-04-07T00:08:48.553Z,1004.63
2024-04-07T00:09:47.666Z,1004.64
2024-04-07T00:10:48.701Z,1004.62
2024-04-07T00:11:48.509Z,1004.57
2024-04-07T00:12:48.422Z,1004.55
2024-04-07T00:13:48.582Z,1004.55
2024-04-07T00:14:48.484Z,1004.57
2024-04-07T00:15:48.381Z,1004.56
2024-04-07T00:16:48.541Z,1004.51
2024-04-07T00:17:48.444Z,1004.52
2024-04-07T00:18:48.348Z,1004.53
2024-04-07T00:19:48.511Z,1004.47
2024-04-07T00:20:48.568Z,1004.47
2024-04-07T00:21:48.319Z,1004.48
2024-04-07T00:22:48.482Z,1004.50
2024-04-07T00:23:48.380Z,1004.51
2024-04-07T00:24:47.508Z,1004.54
2024-04-07T00:25:48.489Z,1004.54
2024-04-07T00:26:48.347Z,1004.54
2024-04-07T00:27:48.259Z,1004.53
2024-04-07T00:28:48.424Z,1004.52
2024-04-07T00:29:47.454Z,1004.51
2024-04-07T00:30:48.227Z,1004.51
2024-04-07T00:31:47.456Z,1004.58
2024-04-07T00:32:48.291Z,1004.56
2024-04-07T00:33:48.188Z,1004.56
2024-04-07T00:34:47.458Z,1004.61
2024-04-07T00:35:48.252Z,1004.58
2024-04-07T00:36:47.387Z,1004.56
2024-04-07T00:37:48.323Z,1004.58
2024-04-07T00:38:48.239Z,1004.55
2024-04-07T00:39:48.127Z,1004.59
2024-04-07T00:40:47.361Z,1004.64
2024-04-07T00:41:48.189Z,1004.65
2024-04-07T00:42:47.316Z,1004.69
2024-04-07T00:43:48.258Z,1004.65
2024-04-07T00:44:48.160Z,1004.63
2024-04-07T00:45:47.309Z,1004.65
2024-04-07T00:46:48.240Z,1004.66
2024-04-07T00:47:47.263Z,1004.68
2024-04-07T00:48:48.041Z,1004.64
2024-04-07T00:49:48.199Z,1004.70
2024-04-07T00:50:48.100Z,1004.74
2024-04-07T00:51:47.996Z,1004.70
2024-04-07T00:52:48.168Z,1004.74
2024-04-07T00:53:48.059Z,1004.71
2024-04-07T00:54:47.975Z,1004.68
2024-04-07T00:55:48.144Z,1004.68
2024-04-07T00:56:47.161Z,1004.64
2024-04-07T00:57:47.934Z,1004.67
2024-04-07T00:58:47.320Z,1004.67
2024-04-07T00:59:47.234Z,1004.68
2024-04-07T01:00:47.898Z,1004.66
2024-04-07T01:01:48.101Z,1004.66
2024-04-07T01:02:47.966Z,1004.66
2024-04-07T01:03:47.868Z,1004.67
2024-04-07T01:04:47.874Z,1004.65
2024-04-07T01:05:47.951Z,1004.62
2024-04-07T01:06:47.843Z,1004.65
2024-04-07T01:07:48.071Z,1004.70
2024-04-07T01:08:47.899Z,1004.72
2024-04-07T01:09:47.812Z,1004.72
2024-04-07T01:10:47.105Z,1004.72
2024-04-07T01:11:47.872Z,1004.69
2024-04-07T01:12:47.773Z,1004.75
2024-04-07T01:13:47.965Z,1004.78
2024-04-07T01:14:47.836Z,1004.78
2024-04-07T01:15:47.740Z,1004.76
2024-04-07T01:16:46.992Z,1004.77
2024-04-07T01:17:47.821Z,1004.75
2024-04-07T01:18:47.718Z,1004.69
2024-04-07T01:19:48.358Z,1004.72
2024-04-07T01:20:47.775Z,1004.73
2024-04-07T01:21:47.675Z,1004.78
2024-04-07T01:22:47.866Z,1004.80
2024-04-07T01:23:47.750Z,1004.79
2024-04-07T01:24:47.655Z,1004.78
2024-04-07T01:25:48.324Z,1004.84
2024-04-07T01:26:47.712Z,1004.86
2024-04-07T01:27:47.610Z,1004.88
2024-04-07T01:28:48.301Z,1004.89
2024-04-07T01:29:47.693Z,1004.90
2024-04-07T01:30:47.596Z,1004.92
2024-04-07T01:31:47.544Z,1004.92
2024-04-07T01:32:47.649Z,1005.02
2024-04-07T01:33:47.563Z,1005.02
2024-04-07T01:34:47.767Z,1005.09
2024-04-07T01:35:47.612Z,1005.11
2024-04-07T01:36:47.516Z,1005.10
2024-04-07T01:37:48.188Z,1005.13
2024-04-07T01:38:46.696Z,1005.24
2024-04-07T01:39:47.486Z,1005.24
2024-04-07T01:40:47.692Z,1005.27
2024-04-07T01:41:47.548Z,1005.28
2024-04-07T01:42:46.665Z,1005.34
2024-04-07T01:43:47.672Z,1005.40
2024-04-07T01:44:47.521Z,1005.42
2024-04-07T01:45:46.640Z,1005.42
2024-04-07T01:46:47.628Z,1005.41
2024-04-07T01:47:47.483Z,1005.43
2024-04-07T01:48:47.391Z,1005.41
2024-04-07T01:49:48.033Z,1005.40
2024-04-07T01:50:47.450Z,1005.35
2024-04-07T01:51:48.138Z,1005.23
2024-04-07T01:52:48.058Z,1005.22
2024-04-07T01:53:47.427Z,1005.20
2024-04-07T01:54:47.336Z,1005.24
2024-04-07T01:55:47.556Z,1005.25
2024-04-07T01:56:47.467Z,1005.37
2024-04-07T01:57:47.296Z,1005.45
2024-04-07T01:58:47.481Z,1005.49
2024-04-07T01:59:47.358Z,1005.53
2024-04-07T02:00:47.265Z,1005.54
2024-04-07T02:01:47.454Z,1005.54
2024-04-07T02:02:47.326Z,1005.45
2024-04-07T02:03:47.906Z,1005.29
2024-04-07T02:04:49.215Z,1005.19
2024-04-07T02:05:47.293Z,1005.13
2024-04-07T02:06:47.197Z,1005.12
2024-04-07T02:07:47.384Z,1005.12
2024-04-07T02:08:47.266Z,1005.11
2024-04-07T02:09:47.168Z,1005.17
2024-04-07T02:10:47.408Z,1005.24
2024-04-07T02:11:47.261Z,1005.21
2024-04-07T02:12:47.156Z,1005.23
2024-04-07T02:13:47.335Z,1005.22
2024-04-07T02:14:47.202Z,1005.15
2024-04-07T02:15:47.108Z,1005.21
2024-04-07T02:16:47.778Z,1005.31
2024-04-07T02:17:47.174Z,1005.32
2024-04-07T02:18:47.078Z,1005.20
2024-04-07T02:19:47.765Z,1005.24
2024-04-07T02:20:47.135Z,1005.49
2024-04-07T02:21:47.292Z,1005.65
2024-04-07T02:22:47.252Z,1005.82
2024-04-07T02:23:47.103Z,1005.80
2024-04-07T02:24:47.007Z,1005.77
2024-04-07T02:25:47.168Z,1005.88
2024-04-07T02:26:47.070Z,1005.87
2024-04-07T02:27:46.994Z,1005.97
2024-04-07T02:28:47.637Z,1005.95
2024-04-07T02:29:47.041Z,1005.94
2024-04-07T02:30:46.968Z,1005.94
2024-04-07T02:31:47.130Z,1005.82
2024-04-07T02:32:47.006Z,1005.80
2024-04-07T02:33:47.168Z,1005.81
2024-04-07T02:34:47.112Z,1005.80
2024-04-07T02:35:47.548Z,1005.85
2024-04-07T02:36:46.878Z,1005.89
2024-04-07T02:37:47.052Z,1005.99
2024-04-07T02:38:46.942Z,1006.10
2024-04-07T02:39:46.848Z,1006.18
2024-04-07T02:40:47.539Z,1006.10
2024-04-07T02:41:46.909Z,1006.15
2024-04-07T02:42:46.826Z,1006.17
2024-04-07T02:43:47.979Z,1006.15
2024-04-07T02:44:46.880Z,1006.25
2024-04-07T02:45:46.783Z,1006.39
2024-04-07T02:46:47.456Z,1006.44
2024-04-07T02:47:46.846Z,1006.43
2024-04-07T02:48:46.756Z,1006.38
2024-04-07T02:49:47.435Z,1006.28
2024-04-07T02:50:46.817Z,1006.22
2024-04-07T02:51:46.717Z,1006.21
2024-04-07T02:52:46.967Z,1006.20
2024-04-07T02:53:46.782Z,1006.29
2024-04-07T02:54:46.681Z,1006.32
2024-04-07T02:55:46.608Z,1006.44
2024-04-07T02:56:46.755Z,1006.53
2024-04-07T02:57:46.664Z,1006.62
2024-04-07T02:58:46.565Z,1006.60
2024-04-07T02:59:46.721Z,1006.64
2024-04-07T03:00:46.622Z,1006.83
2024-04-07T03:01:45.870Z,1007.01
2024-04-07T03:02:46.685Z,1007.11
2024-04-07T03:03:46.594Z,1007.12
2024-04-07T03:04:46.496Z,1007.11
2024-04-07T03:05:46.655Z,1007.22
2024-04-07T03:06:46.560Z,1007.36
2024-04-07T03:07:46.509Z,1007.49
2024-04-07T03:08:46.620Z,1007.54
2024-04-07T03:09:46.525Z,1007.63
2024-04-07T03:10:46.444Z,1007.59
2024-04-07T03:11:46.599Z,1007.47
2024-04-07T03:12:46.491Z,1007.47
2024-04-07T03:13:47.199Z,1007.55
2024-04-07T03:14:46.556Z,1007.63
2024-04-07T03:15:46.460Z,1007.73
2024-04-07T03:16:46.390Z,1007.65
2024-04-07T03:17:46.527Z,1007.62
2024-04-07T03:18:46.431Z,1007.65
2024-04-07T03:19:46.361Z,1007.62
2024-04-07T03:20:45.638Z,1007.69
2024-04-07T03:21:46.396Z,1007.70
2024-04-07T03:22:45.585Z,1007.81
2024-04-07T03:23:46.466Z,1007.74
2024-04-07T03:24:46.364Z,1007.80
2024-04-07T03:25:45.588Z,1007.81
2024-04-07T03:26:46.431Z,1007.83
2024-04-07T03:27:46.333Z,1007.79
2024-04-07T03:28:46.269Z,1007.85
2024-04-07T03:29:46.396Z,1007.95
2024-04-07T03:30:46.303Z,1008.02
2024-04-07T03:31:46.233Z,1008.02
2024-04-07T03:32:46.368Z,1007.98
2024-04-07T03:33:46.288Z,1008.03
2024-04-07T03:34:46.180Z,1008.03
2024-04-07T03:35:46.332Z,1007.95
2024-04-07T03:36:46.234Z,1007.92
2024-04-07T03:37:46.149Z,1007.87
2024-04-07T03:38:46.302Z,1007.93
2024-04-07T03:39:46.293Z,1008.02
2024-04-07T03:40:46.127Z,1008.15
2024-04-07T03:41:46.271Z,1008.24
2024-04-07T03:42:46.174Z,1008.15
2024-04-07T03:43:46.103Z,1008.01
2024-04-07T03:44:46.245Z,1007.98
2024-04-07T03:45:45.349Z,1008.07
2024-04-07T03:46:46.069Z,1008.26
2024-04-07T03:47:46.216Z,1008.34
2024-04-07T03:48:46.113Z,1008.40
2024-04-07T03:49:46.026Z,1008.35
2024-04-07T03:50:46.172Z,1008.44
2024-04-07T03:51:46.077Z,1008.42
2024-04-07T03:52:45.991Z,1008.43
2024-04-07T03:53:46.151Z,1008.35
2024-04-07T03:54:46.042Z,1008.43
2024-04-07T03:55:45.980Z,1008.41
2024-04-07T03:56:46.121Z,1008.43
2024-04-07T03:57:46.016Z,1008.46
2024-04-07T03:58:45.942Z,1008.53
2024-04-07T03:59:46.077Z,1008.61
2024-04-07T04:00:45.979Z,1008.64
2024-04-07T04:01:45.905Z,1008.65
2024-04-07T04:02:46.070Z,1008.55
2024-04-07T04:03:47.026Z,1008.53
2024-04-07T04:04:45.865Z,1008.56
2024-04-07T04:05:46.013Z,1008.72
2024-04-07T04:06:45.926Z,1008.70
2024-04-07T04:07:45.843Z,1008.72
2024-04-07T04:08:45.982Z,1008.86
2024-04-07T04:09:45.908Z,1008.77
2024-04-07T04:10:45.831Z,1008.75
2024-04-07T04:11:45.956Z,1008.70
2024-04-07T04:12:45.859Z,1008.75
2024-04-07T04:13:45.808Z,1008.83
2024-04-07T04:14:45.919Z,1008.77
2024-04-07T04:15:45.819Z,1008.75
2024-04-07T04:16:45.727Z,1008.71
2024-04-07T04:17:45.886Z,1008.74
2024-04-07T04:18:45.793Z,1008.94
2024-04-07T04:19:45.757Z,1008.96
2024-04-07T04:20:45.854Z,1008.95
2024-04-07T04:21:45.758Z,1008.88
2024-04-07T04:22:45.671Z,1008.89
2024-04-07T04:23:45.821Z,1008.94
2024-04-07T04:24:45.730Z,1009.03
2024-04-07T04:25:45.906Z,1009.02
2024-04-07T04:26:45.792Z,1009.05
2024-04-07T04:27:45.692Z,1009.05
2024-04-07T04:28:45.642Z,1009.10
2024-04-07T04:29:44.859Z,1009.10
2024-04-07T04:30:44.844Z,1009.19
2024-04-07T04:31:44.842Z,1009.37
2024-04-07T04:32:45.734Z,1009.23
2024-04-07T04:33:45.632Z,1009.09
2024-04-07T04:34:45.570Z,1008.99
2024-04-07T04:35:45.718Z,1008.98
2024-04-07T04:36:45.599Z,1008.98
2024-04-07T04:37:45.556Z,1009.01
2024-04-07T04:38:45.671Z,1008.89
2024-04-07T04:39:45.596Z,1008.90
2024-04-07T04:40:45.466Z,1008.89
2024-04-07T04:41:45.631Z,1008.88
2024-04-07T04:42:45.537Z,1008.82
2024-04-07T04:43:45.712Z,1008.84
2024-04-07T04:44:45.600Z,1008.80
2024-04-07T04:45:45.500Z,1008.88
2024-04-07T04:46:45.407Z,1008.91
2024-04-07T04:47:45.567Z,1009.00
2024-04-07T04:48:45.476Z,1008.93
2024-04-07T04:49:44.643Z,1008.94
2024-04-07T04:50:45.532Z,1008.98
2024-04-07T04:51:45.436Z,1008.97
2024-04-07T04:52:45.339Z,1008.95
2024-04-07T04:53:47.075Z,1009.00
2024-04-07T04:54:45.444Z,1009.08
2024-04-07T04:55:45.312Z,1009.06
2024-04-07T04:56:45.474Z,1009.10
2024-04-07T04:57:45.374Z,1009.05
2024-04-07T04:58:44.559Z,1009.01
2024-04-07T04:59:45.578Z,1009.01
2024-04-07T05:00:45.343Z,1009.00
2024-04-07T05:01:45.246Z,1008.96
2024-04-07T05:02:45.425Z,1008.86
2024-04-07T05:03:45.330Z,1008.72
2024-04-07T05:04:45.215Z,1008.93
2024-04-07T05:05:45.373Z,1009.09
2024-04-07T05:06:45.275Z,1009.14
2024-04-07T05:07:45.178Z,1009.16
2024-04-07T05:08:45.339Z,1009.20
2024-04-07T05:09:45.245Z,1009.30
2024-04-07T05:10:45.175Z,1009.31
2024-04-07T05:11:45.307Z,1009.31
2024-04-07T05:12:45.215Z,1009.24
2024-04-07T05:13:45.114Z,1009.26
2024-04-07T05:14:45.278Z,1009.37
2024-04-07T05:15:45.183Z,1009.34
2024-04-07T05:16:45.088Z,1009.24
2024-04-07T05:17:47.857Z,1009.11
2024-04-07T05:18:44.351Z,1009.04
2024-04-07T05:19:45.065Z,1009.03
2024-04-07T05:20:45.212Z,1009.18
2024-04-07T05:21:44.296Z,1009.32
2024-04-07T05:22:45.019Z,1009.40
2024-04-07T05:23:45.177Z,1009.35
2024-04-07T05:24:45.080Z,1009.38
2024-04-07T05:25:44.251Z,1009.37
2024-04-07T05:26:45.149Z,1009.42
2024-04-07T05:27:45.050Z,1009.39
2024-04-07T05:28:44.965Z,1009.31
2024-04-07T05:29:45.118Z,1009.26
2024-04-07T05:30:44.244Z,1009.27
2024-04-07T05:31:44.955Z,1009.30
2024-04-07T05:32:44.169Z,1009.37
2024-04-07T05:33:44.166Z,1009.34
2024-04-07T05:34:44.894Z,1009.21
2024-04-07T05:35:45.052Z,1009.19
2024-04-07T05:36:44.957Z,1009.17
2024-04-07T05:37:44.863Z,1009.08
2024-04-07T05:38:44.095Z,1009.09
2024-04-07T05:39:44.924Z,1009.09
2024-04-07T05:40:44.828Z,1009.12
2024-04-07T05:41:46.024Z,1009.08
2024-04-07T05:42:44.899Z,1009.06
2024-04-07T05:43:44.801Z,1009.20
2024-04-07T05:44:44.962Z,1009.18
2024-04-07T05:45:44.860Z,1009.12
2024-04-07T05:46:44.771Z,1009.17
2024-04-07T05:47:44.931Z,1009.16
2024-04-07T05:48:48.352Z,1009.17
2024-04-07T05:49:45.431Z,1009.10
2024-04-07T05:50:44.904Z,1009.11
2024-04-07T05:51:44.812Z,1009.17
2024-04-07T05:52:44.699Z,1009.21
2024-04-07T05:53:44.873Z,1009.18
2024-04-07T05:54:44.768Z,1009.14
2024-04-07T05:55:44.670Z,1009.12
2024-04-07T05:56:44.830Z,1009.15
2024-04-07T05:57:44.742Z,1009.13
2024-04-07T05:58:46.339Z,1009.12
2024-04-07T05:59:44.808Z,1009.06
2024-04-07T06:00:44.709Z,1009.16
2024-04-07T06:01:43.864Z,1009.19
2024-04-07T06:02:43.834Z,1009.24
2024-04-07T06:03:43.834Z,1009.24
2024-04-07T06:04:44.584Z,1009.20
2024-04-07T06:05:44.748Z,1009.20
2024-04-07T06:06:43.802Z,1009.16
2024-04-07T06:07:45.401Z,1009.24
2024-04-07T06:08:43.775Z,1009.30
2024-04-07T06:09:43.770Z,1009.26
2024-04-07T06:10:44.553Z,1009.35
2024-04-07T06:11:44.669Z,1009.36
2024-04-07T06:12:43.747Z,1009.36
2024-04-07T06:13:43.726Z,1009.37
2024-04-07T06:14:43.720Z,1009.35
2024-04-07T06:15:44.545Z,1009.37
2024-04-07T06:16:43.706Z,1009.32
2024-04-07T06:17:43.675Z,1009.32
2024-04-07T06:18:43.660Z,1009.32
2024-04-07T06:19:44.413Z,1009.42
2024-04-07T06:20:44.573Z,1009.54
2024-04-07T06:21:44.479Z,1009.60
2024-04-07T06:22:44.382Z,1009.61
2024-04-07T06:23:44.544Z,1009.69
2024-04-07T06:24:43.600Z,1009.71
2024-04-07T06:25:44.367Z,1009.71
2024-04-07T06:26:43.570Z,1009.73
2024-04-07T06:27:43.594Z,1009.70
2024-04-07T06:28:43.557Z,1009.71
2024-04-07T06:29:43.555Z,1009.77
2024-04-07T06:30:44.379Z,1009.81
2024-04-07T06:31:44.284Z,1009.82
2024-04-07T06:32:44.451Z,1009.78
2024-04-07T06:33:45.962Z,1009.77
2024-04-07T06:34:43.491Z,1009.76
2024-04-07T06:35:43.501Z,1009.74
2024-04-07T06:36:44.317Z,1009.70
2024-04-07T06:37:44.222Z,1009.76
2024-04-07T06:38:44.397Z,1009.77
2024-04-07T06:39:44.289Z,1009.81
2024-04-07T06:40:43.456Z,1009.86
2024-04-07T06:41:44.354Z,1009.83
2024-04-07T06:42:43.431Z,1009.85
2024-04-07T06:43:44.160Z,1009.92
2024-04-07T06:44:44.331Z,1009.98
2024-04-07T06:45:44.223Z,1009.98
2024-04-07T06:46:44.127Z,1010.03
2024-04-07T06:47:44.298Z,1010.13
2024-04-07T06:48:44.189Z,1010.12
2024-04-07T06:49:43.332Z,1010.15
2024-04-07T06:50:44.260Z,1010.09
2024-04-07T06:51:44.157Z,1010.23
2024-04-07T06:52:43.334Z,1010.21
2024-04-07T06:53:44.229Z,1010.26
2024-04-07T06:54:44.131Z,1010.30
2024-04-07T06:55:44.027Z,1010.38
2024-04-07T06:56:44.192Z,1010.37
2024-04-07T06:57:44.096Z,1010.25
2024-04-07T06:58:43.249Z,1010.29
2024-04-07T06:59:44.163Z,1010.32
2024-04-07T07:00:44.074Z,1010.31
2024-04-07T07:01:43.259Z,1010.36
2024-04-07T07:02:44.129Z,1010.36
2024-04-07T07:03:44.174Z,1010.31
2024-04-07T07:04:43.162Z,1010.29
2024-04-07T07:05:44.091Z,1010.28
2024-04-07T07:06:43.995Z,1010.27
2024-04-07T07:07:43.904Z,1010.24
2024-04-07T07:08:45.085Z,1010.19
2024-04-07T07:09:43.116Z,1010.20
2024-04-07T07:10:43.155Z,1010.25
2024-04-07T07:11:44.029Z,1010.24
2024-04-07T07:12:43.938Z,1010.39
2024-04-07T07:13:43.838Z,1010.41
2024-04-07T07:14:43.997Z,1010.38
2024-04-07T07:15:43.900Z,1010.36
2024-04-07T07:16:43.817Z,1010.38
2024-04-07T07:17:43.964Z,1010.34
2024-04-07T07:18:43.876Z,1010.40
2024-04-07T07:19:43.773Z,1010.43
2024-04-07T07:20:43.950Z,1010.47
2024-04-07T07:21:43.853Z,1010.49
2024-04-07T07:22:43.744Z,1010.55
2024-04-07T07:23:43.920Z,1010.62
2024-04-07T07:24:43.822Z,1010.65
2024-04-07T07:25:43.714Z,1010.70
2024-04-07T07:26:43.872Z,1010.65
2024-04-07T07:27:43.787Z,1010.73
2024-04-07T07:28:43.677Z,1010.64
2024-04-07T07:29:43.837Z,1010.71
2024-04-07T07:30:43.767Z,1010.59
2024-04-07T07:31:43.650Z,1010.72
2024-04-07T07:32:43.812Z,1010.72
2024-04-07T07:33:43.715Z,1010.69
2024-04-07T07:34:42.844Z,1010.72
2024-04-07T07:35:42.843Z,1010.73
2024-04-07T07:36:42.871Z,1010.66
2024-04-07T07:37:42.830Z,1010.67
2024-04-07T07:38:42.840Z,1010.62
2024-04-07T07:39:43.654Z,1010.58
2024-04-07T07:40:43.550Z,1010.59
2024-04-07T07:41:44.715Z,1010.59
2024-04-07T07:42:43.619Z,1010.63
2024-04-07T07:43:43.520Z,1010.49
2024-04-07T07:44:43.690Z,1010.58
2024-04-07T07:45:43.589Z,1010.61
2024-04-07T07:46:43.511Z,1010.58
2024-04-07T07:47:43.644Z,1010.62
2024-04-07T07:48:43.547Z,1010.63
2024-04-07T07:49:43.487Z,1010.64
2024-04-07T07:50:43.616Z,1010.55
2024-04-07T07:51:43.540Z,1010.52
2024-04-07T07:52:42.719Z,1010.51
2024-04-07T07:53:43.580Z,1010.49
2024-04-07T07:54:43.491Z,1010.51
2024-04-07T07:55:43.396Z,1010.52
2024-04-07T07:56:43.552Z,1010.54
2024-04-07T07:57:43.455Z,1010.61
2024-04-07T07:58:43.360Z,1010.64
2024-04-07T07:59:43.527Z,1010.68
2024-04-07T08:00:43.434Z,1010.71
2024-04-07T08:01:43.358Z,1010.72
2024-04-07T08:02:43.499Z,1010.67
2024-04-07T08:03:43.390Z,1010.75
2024-04-07T08:04:43.292Z,1010.70
2024-04-07T08:05:43.458Z,1010.77
2024-04-07T08:06:45.645Z,1010.79
2024-04-07T08:07:43.279Z,1010.80
2024-04-07T08:08:43.472Z,1010.84
2024-04-07T08:09:43.323Z,1010.85
2024-04-07T08:10:43.501Z,1010.93
2024-04-07T08:11:43.390Z,1010.95
2024-04-07T08:12:43.304Z,1010.97
2024-04-07T08:13:43.204Z,1010.96
2024-04-07T08:14:43.368Z,1011.01
2024-04-07T08:15:43.260Z,1011.03
2024-04-07T08:16:43.184Z,1010.99
2024-04-07T08:17:43.324Z,1011.03
2024-04-07T08:18:43.230Z,1011.09
2024-04-07T08:19:43.174Z,1011.15
2024-04-07T08:20:43.296Z,1011.06
2024-04-07T08:21:43.213Z,1011.05
2024-04-07T08:22:43.357Z,1011.05
2024-04-07T08:23:43.288Z,1011.03
2024-04-07T08:24:43.176Z,1011.02
2024-04-07T08:25:43.070Z,1011.05
2024-04-07T08:26:43.229Z,1011.09
2024-04-07T08:27:43.135Z,1011.08
2024-04-07T08:28:43.293Z,1011.17
2024-04-07T08:29:43.199Z,1011.17
2024-04-07T08:30:43.102Z,1011.09
2024-04-07T08:31:43.008Z,1011.10
2024-04-07T08:32:43.171Z,1011.20
2024-04-07T08:33:43.072Z,1011.16
2024-04-07T08:34:42.974Z,1011.24
2024-04-07T08:35:43.636Z,1011.21
2024-04-07T08:36:43.040Z,1011.25
2024-04-07T08:37:42.946Z,1011.27
2024-04-07T08:38:43.103Z,1011.29
2024-04-07T08:39:42.141Z,1011.28
2024-04-07T08:40:43.170Z,1011.28
2024-04-07T08:41:42.180Z,1011.23
2024-04-07T08:42:42.992Z,1011.27
2024-04-07T08:43:42.889Z,1011.34
2024-04-07T08:44:43.036Z,1011.43
2024-04-07T08:45:42.945Z,1011.43
2024-04-07T08:46:44.667Z,1011.30
2024-04-07T08:47:43.008Z,1011.39
2024-04-07T08:48:42.909Z,1011.37
2024-04-07T08:49:42.815Z,1011.27
2024-04-07T08:50:42.974Z,1011.35
2024-04-07T08:51:44.469Z,1011.48
2024-04-07T08:52:43.034Z,1011.42
2024-04-07T08:53:43.442Z,1011.38
2024-04-07T08:54:42.868Z,1011.32
2024-04-07T08:55:42.752Z,1011.42
2024-04-07T08:56:42.922Z,1011.36
2024-04-07T08:57:42.814Z,1011.39
2024-04-07T08:58:42.757Z,1011.40
2024-04-07T08:59:42.877Z,1011.43
2024-04-07T09:00:42.782Z,1011.44
2024-04-07T09:01:42.689Z,1011.43
2024-04-07T09:02:42.845Z,1011.39
2024-04-07T09:03:42.751Z,1011.38
2024-04-07T09:04:42.654Z,1011.29
2024-04-07T09:05:42.843Z,1011.32
2024-04-07T09:06:42.721Z,1011.32
2024-04-07T09:07:42.624Z,1011.37
2024-04-07T09:08:42.794Z,1011.39
2024-04-07T09:09:41.829Z,1011.34
2024-04-07T09:10:41.866Z,1011.42
2024-04-07T09:11:43.236Z,1011.40
2024-04-07T09:12:42.655Z,1011.32
2024-04-07T09:13:42.558Z,1011.31
2024-04-07T09:14:42.718Z,1011.32
2024-04-07T09:15:42.625Z,1011.27
2024-04-07T09:16:42.527Z,1011.30
2024-04-07T09:17:42.685Z,1011.25
2024-04-07T09:18:42.590Z,1011.29
2024-04-07T09:19:42.493Z,1011.26
2024-04-07T09:20:42.656Z,1011.31
2024-04-07T09:21:42.581Z,1011.24
2024-04-07T09:22:42.462Z,1011.27
2024-04-07T09:23:43.127Z,1011.25
2024-04-07T09:24:42.532Z,1011.28
2024-04-07T09:25:42.882Z,1011.24
2024-04-07T09:26:42.588Z,1011.26
2024-04-07T09:27:42.493Z,1011.33
2024-04-07T09:28:42.398Z,1011.30
2024-04-07T09:29:43.050Z,1011.23
2024-04-07T09:30:42.465Z,1011.27
2024-04-07T09:31:42.366Z,1011.34
2024-04-07T09:32:42.526Z,1011.26
2024-04-07T09:33:42.431Z,1011.30
2024-04-07T09:34:42.339Z,1011.24
2024-04-07T09:35:42.492Z,1011.34
2024-04-07T09:36:42.396Z,1011.33
2024-04-07T09:37:41.515Z,1011.29
2024-04-07T09:38:42.463Z,1011.24
2024-04-07T09:39:42.367Z,1011.32
2024-04-07T09:40:42.549Z,1011.33
2024-04-07T09:41:42.430Z,1011.38
2024-04-07T09:42:41.460Z,1011.37
2024-04-07T09:43:41.451Z,1011.32
2024-04-07T09:44:42.400Z,1011.34
2024-04-07T09:45:42.320Z,1011.27
2024-04-07T09:46:42.716Z,1011.25
2024-04-07T09:47:42.368Z,1011.31
2024-04-07T09:48:42.270Z,1011.25
2024-04-07T09:49:42.173Z,1011.30
2024-04-07T09:50:42.338Z,1011.29
2024-04-07T09:51:42.247Z,1011.27
2024-04-07T09:52:42.141Z,1011.26
2024-04-07T09:53:42.426Z,1011.31
2024-04-07T09:54:42.210Z,1011.29
2024-04-07T09:55:42.130Z,1011.20
2024-04-07T09:56:42.272Z,1011.27
2024-04-07T09:57:42.171Z,1011.27
2024-04-07T09:58:42.078Z,1011.21
2024-04-07T09:59:42.240Z,1011.27
2024-04-07T10:00:42.151Z,1011.27
2024-04-07T10:01:42.047Z,1011.18
2024-04-07T10:02:42.204Z,1011.22
2024-04-07T10:03:42.109Z,1011.25
2024-04-07T10:04:42.272Z,1011.28
2024-04-07T10:05:42.175Z,1011.23
2024-04-07T10:06:42.078Z,1011.25
2024-04-07T10:07:41.990Z,1011.24
2024-04-07T10:08:42.143Z,1011.22
2024-04-07T10:09:42.057Z,1011.19
2024-04-07T10:10:47.014Z,1011.19
2024-04-07T10:11:43.610Z,1011.14
2024-04-07T10:12:42.015Z,1011.12
2024-04-07T10:13:41.346Z,1011.19
2024-04-07T10:14:41.137Z,1011.16
2024-04-07T10:15:41.984Z,1011.17
2024-04-07T10:16:42.144Z,1011.17
2024-04-07T10:17:41.091Z,1011.12
2024-04-07T10:18:41.405Z,1011.13
2024-04-07T10:19:41.859Z,1011.02
2024-04-07T10:20:41.077Z,1011.04
2024-04-07T10:21:41.919Z,1011.10
2024-04-07T10:22:41.824Z,1011.14
2024-04-07T10:23:41.037Z,1011.08
2024-04-07T10:24:41.022Z,1011.03
2024-04-07T10:25:41.814Z,1011.02
2024-04-07T10:26:41.951Z,1011.09
2024-04-07T10:27:41.854Z,1011.11
2024-04-07T10:28:41.757Z,1011.07
2024-04-07T10:29:40.964Z,1011.10
2024-04-07T10:30:41.868Z,1011.08
2024-04-07T10:31:41.725Z,1011.06
2024-04-07T10:32:41.884Z,1011.08
2024-04-07T10:33:41.790Z,1011.06
2024-04-07T10:34:41.711Z,1011.13
2024-04-07T10:35:41.853Z,1011.17
2024-04-07T10:36:41.758Z,1011.14
2024-04-07T10:37:41.661Z,1011.16
2024-04-07T10:38:42.322Z,1011.15
2024-04-07T10:39:41.726Z,1011.16
2024-04-07T10:40:41.631Z,1011.12
2024-04-07T10:41:41.790Z,1011.10
2024-04-07T10:42:42.024Z,1011.12
2024-04-07T10:43:41.597Z,1011.01
2024-04-07T10:44:41.761Z,1011.06
2024-04-07T10:45:40.790Z,1011.12
2024-04-07T10:46:40.896Z,1011.14
2024-04-07T10:47:40.773Z,1011.13
2024-04-07T10:48:42.174Z,1011.16
2024-04-07T10:49:41.532Z,1011.17
2024-04-07T10:50:41.690Z,1011.15
2024-04-07T10:51:41.596Z,1011.20
2024-04-07T10:52:41.499Z,1011.17
2024-04-07T10:53:41.665Z,1011.08
2024-04-07T10:54:41.850Z,1011.14
2024-04-07T10:55:41.473Z,1011.12
2024-04-07T10:56:41.639Z,1011.14
2024-04-07T10:57:41.531Z,1011.18
2024-04-07T10:58:41.725Z,1011.07
2024-04-07T10:59:41.595Z,1011.14
2024-04-07T11:00:41.530Z,1011.15
2024-04-07T11:01:41.419Z,1011.10
2024-04-07T11:02:41.563Z,1011.05
2024-04-07T11:03:41.472Z,1011.11
2024-04-07T11:04:41.374Z,1011.14
2024-04-07T11:05:41.539Z,1011.16
2024-04-07T11:06:41.436Z,1011.13
2024-04-07T11:07:41.344Z,1011.11
2024-04-07T11:08:41.509Z,1011.17
2024-04-07T11:09:41.411Z,1011.08
2024-04-07T11:10:41.589Z,1011.11
2024-04-07T11:11:41.467Z,1011.15
2024-04-07T11:12:41.743Z,1011.19
2024-04-07T11:13:41.280Z,1011.22
2024-04-07T11:14:41.438Z,1011.16
2024-04-07T11:15:41.340Z,1011.22
2024-04-07T11:16:41.256Z,1011.20
2024-04-07T11:17:44.269Z,1011.15
2024-04-07T11:18:41.318Z,1011.20
2024-04-07T11:19:41.216Z,1011.19
2024-04-07T11:20:41.385Z,1011.17
2024-04-07T11:21:41.277Z,1011.23
2024-04-07T11:22:41.439Z,1011.25
2024-04-07T11:23:54.724Z,1011.17
2024-04-07T11:24:41.246Z,1011.20
2024-04-07T11:25:41.157Z,1011.26
2024-04-07T11:26:41.315Z,1011.20
2024-04-07T11:27:41.215Z,1011.21
2024-04-07T11:28:41.375Z,1011.17
2024-04-07T11:29:41.276Z,1011.16
2024-04-07T11:30:41.187Z,1011.16
2024-04-07T11:31:41.084Z,1011.07
2024-04-07T11:32:41.364Z,1011.08
2024-04-07T11:33:41.152Z,1011.14
2024-04-07T11:34:42.278Z,1011.08
2024-04-07T11:35:41.692Z,1010.98
2024-04-07T11:36:41.120Z,1011.10
2024-04-07T11:37:41.026Z,1011.07
2024-04-07T11:38:41.173Z,1011.07
2024-04-07T11:39:46.036Z,1011.19
2024-04-07T11:40:42.270Z,1011.15
2024-04-07T11:41:41.142Z,1011.14
2024-04-07T11:42:41.054Z,1011.12
2024-04-07T11:43:40.958Z,1011.17
2024-04-07T11:44:41.107Z,1011.19
2024-04-07T11:45:41.026Z,1011.19
2024-04-07T11:46:44.060Z,1011.16
2024-04-07T11:47:41.069Z,1011.13
2024-04-07T11:48:40.991Z,1011.10
2024-04-07T11:49:40.892Z,1011.14
2024-04-07T11:50:41.059Z,1011.13
2024-04-07T11:51:40.959Z,1011.06
2024-04-07T11:52:41.117Z,1011.09
2024-04-07T11:53:41.024Z,1011.06
2024-04-07T11:54:40.925Z,1011.09
2024-04-07T11:55:40.829Z,1011.08
2024-04-07T11:56:40.991Z,1011.06
2024-04-07T11:57:40.894Z,1011.04
2024-04-07T11:58:40.799Z,1011.03
2024-04-07T11:59:40.956Z,1011.00
2024-04-07T12:00:40.874Z,1011.07
2024-04-07T12:01:40.768Z,1011.03
2024-04-07T12:02:40.925Z,1010.93
2024-04-07T12:03:40.830Z,1010.92
2024-04-07T12:04:40.734Z,1010.96
2024-04-07T12:05:40.900Z,1011.03